Airfield :
LOGIN :

Register | Disclaimer

   EN    FR    IT 

 










Legend :    VFR   Marginal VFR   IFR   Intensive IFR   Very Intensive IFR
Visi :
Ceiling :
>= 8 km
>= 3000ft
5 to 8 km
1000 to 3000 ft
1500m to 5 km
500 to 1000 ft
800 to 1500m
200 to 500 ft
< 800m
< 200 ft
Symbols :   Thunderstorms  Fog  Heavy snow  Heavy precipitations  Wind > 20 kt
SIGMETs :     Misc.  Thunderstorms  Icing  Turbulence  Mountain Waves  Volcanic Ashes







- Airport Elevation : 286 ft
- IATA code : FFD


EGVA - RAF Fairford

CURRENT METAR :
  • 211211Z AUTO 31009G17KT 9999 SCT050 17/04 A3032 RMK AO2 SLP271 $

EXPIRED METARs :
  • 211156Z AUTO 34008KT 9999 BKN048 17/04 A3032 RMK AO2 SLP271 T01650039 10168 20109 51008 $
  • 211141Z AUTO 33013KT 9999 BKN048 17/04 A3032 RMK AO2 SLP271 $
  • 211126Z AUTO 33013G16KT 9999 BKN047 16/04 A3032 RMK AO2 SLP271 $
  • 211116Z AUTO 36013KT 9999 SCT046 16/04 A3032 RMK AO2 SLP271 $
  • 211101Z AUTO 33010KT 9999 BKN046 16/04 A3032 RMK AO2 SLP271 $
  • 211046Z AUTO 31011KT 9999 BKN045 16/05 A3032 RMK AO2 SLP271 $
  • 211016Z AUTO 35009G19KT 9999 SCT044 15/04 A3031 RMK AO2 SLP267 $
  • 211006Z AUTO 34011G18KT 9999 BKN043 15/04 A3031 RMK AO2 SLP267 $
  • 210956Z AUTO 33010G18KT 9999 SCT042 15/04 A3031 RMK AO2 SLP267 T01450042 $
  • 210951Z AUTO 34012G18KT 9999 BKN042 15/04 A3031 RMK AO2 SLP267 $

Expired Forecast.
No reported NOTAMs for that airfield.



MET'MAP, your aeronautical weather chart ! - Copyright ORBIFLY December 2007 - Disclaimer

ORBIFLY MET'MAP TEAM :

Programming & Development : Alexandra Zaïnal
Concept & Development : Baudouin d'Aumeries
Co-Development & Prog : Marc-Olivier Méhu
Technical & hardware support : Manuel Goepfert

Contact : metmap@orbifly.com




SOURCES & CREDITS :

   NOAA